createdAt,value
2019-04-05T00:01:05.425Z,5.60
2019-04-05T00:03:33.925Z,5.59
2019-04-05T00:06:02.775Z,5.59
2019-04-05T00:08:31.445Z,5.58
2019-04-05T00:11:00.855Z,5.58
2019-04-05T00:13:29.428Z,5.58
2019-04-05T00:15:58.003Z,5.57
2019-04-05T00:18:26.572Z,5.58
2019-04-05T00:20:55.192Z,5.57
2019-04-05T00:23:23.788Z,5.57
2019-04-05T00:25:52.383Z,5.56
2019-04-05T00:28:21.190Z,5.57
2019-04-05T00:30:49.774Z,5.57
2019-04-05T00:33:18.511Z,5.56
2019-04-05T00:35:47.083Z,5.55
2019-04-05T00:38:15.662Z,5.55
2019-04-05T00:40:44.235Z,5.56
2019-04-05T00:43:13.084Z,5.56
2019-04-05T00:45:41.656Z,5.57
2019-04-05T00:48:10.232Z,5.57
2019-04-05T00:50:38.809Z,5.58
2019-04-05T00:53:07.507Z,5.57
2019-04-05T00:55:36.086Z,5.56
2019-04-05T00:58:04.757Z,5.57
2019-04-05T01:00:33.425Z,5.57
2019-04-05T01:03:02.054Z,5.56
2019-04-05T01:05:30.744Z,5.56
2019-04-05T01:07:59.484Z,5.54
2019-04-05T01:10:28.058Z,5.53
2019-04-05T01:12:56.745Z,5.52
2019-04-05T01:15:25.342Z,5.52
2019-04-05T01:17:54.318Z,5.51
2019-04-05T01:20:25.011Z,5.51
2019-04-05T01:22:54.299Z,5.49
2019-04-05T01:25:23.376Z,5.48
2019-04-05T01:27:52.246Z,5.46
2019-04-05T01:30:20.859Z,5.45
2019-04-05T01:32:49.606Z,5.43
2019-04-05T01:35:18.319Z,5.43
2019-04-05T01:37:46.978Z,5.44
2019-04-05T01:40:15.970Z,5.42
2019-04-05T01:42:45.047Z,5.42
2019-04-05T01:45:13.955Z,5.42
2019-04-05T01:47:42.527Z,5.42
2019-04-05T01:50:11.526Z,5.42
2019-04-05T01:52:41.114Z,5.43
2019-04-05T01:55:10.487Z,5.43
2019-04-05T01:57:39.062Z,5.44
2019-04-05T02:00:10.556Z,5.46
2019-04-05T02:02:39.217Z,5.48
2019-04-05T02:05:09.290Z,5.50
2019-04-05T02:07:38.395Z,5.52
2019-04-05T02:10:08.469Z,5.53
2019-04-05T02:12:37.439Z,5.54
2019-04-05T02:15:10.778Z,5.53
2019-04-05T02:17:39.358Z,5.53
2019-04-05T02:20:08.831Z,5.52
2019-04-05T02:22:37.702Z,5.53
2019-04-05T02:25:06.984Z,5.52
2019-04-05T02:27:35.588Z,5.52
2019-04-05T02:30:06.216Z,5.52
2019-04-05T02:32:34.784Z,5.52
2019-04-05T02:35:04.119Z,5.52
2019-04-05T02:37:32.723Z,5.52
2019-04-05T02:40:01.301Z,5.52
2019-04-05T02:42:30.685Z,5.53
2019-04-05T02:44:59.557Z,5.53
2019-04-05T02:47:28.447Z,5.53
2019-04-05T02:49:58.612Z,5.52
2019-04-05T02:52:28.393Z,5.53
2019-04-05T02:54:58.606Z,5.53
2019-04-05T02:57:28.686Z,5.53
2019-04-05T02:59:57.873Z,5.55
2019-04-05T03:02:27.268Z,5.55
2019-04-05T03:04:56.723Z,5.52
2019-04-05T03:07:27.434Z,5.51
2019-04-05T03:09:57.711Z,5.51
2019-04-05T03:12:26.884Z,5.49
2019-04-05T03:14:55.959Z,5.48
2019-04-05T03:17:25.740Z,5.50
2019-04-05T03:19:57.247Z,5.49
2019-04-05T03:22:28.413Z,5.49
2019-04-05T03:24:59.125Z,5.49
2019-04-05T03:27:30.620Z,5.49
2019-04-05T03:30:00.034Z,5.50
2019-04-05T03:32:28.617Z,5.49
2019-04-05T03:34:57.392Z,5.51
2019-04-05T03:37:26.296Z,5.52
2019-04-05T03:39:55.799Z,5.54
2019-04-05T03:42:24.847Z,5.55
2019-04-05T03:44:53.503Z,5.56
2019-04-05T03:47:22.222Z,5.57
2019-04-05T03:49:50.930Z,5.59
2019-04-05T03:52:19.629Z,5.61
2019-04-05T03:54:48.401Z,5.60
2019-04-05T03:57:17.099Z,5.60
2019-04-05T03:59:45.762Z,5.67
2019-04-05T04:02:14.544Z,5.69
2019-04-05T04:04:43.226Z,5.70
2019-04-05T04:07:11.833Z,5.71
2019-04-05T04:09:40.782Z,5.72
2019-04-05T04:12:09.726Z,5.72
2019-04-05T04:14:39.306Z,5.73
2019-04-05T04:17:12.891Z,5.72
2019-04-05T04:19:38.822Z,5.73
2019-04-05T04:22:22.649Z,5.73
2019-04-05T04:24:51.789Z,5.74
2019-04-05T04:27:20.968Z,5.76
2019-04-05T04:29:49.578Z,5.76
2019-04-05T04:32:18.755Z,5.75
2019-04-05T04:34:47.828Z,5.76
2019-04-05T04:37:16.614Z,5.75
2019-04-05T04:39:45.383Z,5.76
2019-04-05T04:42:15.582Z,5.74
2019-04-05T04:44:44.456Z,5.73
2019-04-05T04:47:25.377Z,5.73
2019-04-05T04:49:44.964Z,5.74
2019-04-05T04:52:14.117Z,5.76
2019-04-05T04:54:42.690Z,5.77
2019-04-05T04:57:11.442Z,5.78
2019-04-05T04:59:40.146Z,5.79
2019-04-05T05:02:09.031Z,5.81
2019-04-05T05:04:37.707Z,5.83
2019-04-05T05:07:06.581Z,5.84
2019-04-05T05:09:35.639Z,5.85
2019-04-05T05:12:04.409Z,5.85
2019-04-05T05:14:33.382Z,5.87
2019-04-05T05:17:01.963Z,5.87
2019-04-05T05:19:30.562Z,5.85
2019-04-05T05:21:59.195Z,5.89
2019-04-05T05:24:28.080Z,5.89
2019-04-05T05:26:56.880Z,5.91
2019-04-05T05:29:25.502Z,5.93
2019-04-05T05:31:54.387Z,5.94
2019-04-05T05:34:22.971Z,5.97
2019-04-05T05:36:51.844Z,5.98
2019-04-05T05:39:20.632Z,5.99
2019-04-05T05:41:49.197Z,6.01
2019-04-05T05:44:18.079Z,6.04
2019-04-05T05:46:46.675Z,6.06
2019-04-05T05:49:15.297Z,6.07
2019-04-05T05:51:44.870Z,6.08
2019-04-05T05:54:13.442Z,6.09
2019-04-05T05:56:42.022Z,6.11
2019-04-05T05:59:10.601Z,6.11
2019-04-05T06:01:39.548Z,6.13
2019-04-05T06:04:08.120Z,6.14
2019-04-05T06:06:37.124Z,6.15
2019-04-05T06:09:07.837Z,6.17
2019-04-05T06:11:36.495Z,6.19
2019-04-05T06:14:05.179Z,6.20
2019-04-05T06:16:45.949Z,6.23
2019-04-05T06:19:04.199Z,6.25
2019-04-05T06:21:32.772Z,6.28
2019-04-05T06:24:01.348Z,6.32
2019-04-05T06:26:29.928Z,6.36
2019-04-05T06:28:58.551Z,6.39
2019-04-05T06:31:27.158Z,6.44
2019-04-05T06:33:55.667Z,6.49
2019-04-05T06:36:24.237Z,6.56
2019-04-05T06:38:52.898Z,6.62
2019-04-05T06:41:21.472Z,6.67
2019-04-05T06:43:50.043Z,6.74
2019-04-05T06:46:18.616Z,6.76
2019-04-05T06:48:47.199Z,6.83
2019-04-05T06:51:15.823Z,6.91
2019-04-05T06:53:44.501Z,6.96
2019-04-05T06:56:13.107Z,7.01
2019-04-05T06:58:41.682Z,7.05
2019-04-05T07:01:10.257Z,7.11
2019-04-05T07:03:39.031Z,7.16
2019-04-05T07:06:07.620Z,7.23
2019-04-05T07:08:36.195Z,7.31
2019-04-05T07:11:04.782Z,7.33
2019-04-05T07:13:33.371Z,7.37
2019-04-05T07:16:02.074Z,7.43
2019-04-05T07:18:35.612Z,7.49
2019-04-05T07:21:00.947Z,7.54
2019-04-05T07:23:29.530Z,7.58
2019-04-05T07:25:58.178Z,7.65
2019-04-05T07:28:26.819Z,7.73
2019-04-05T07:30:55.390Z,7.86
2019-04-05T07:33:23.978Z,8.03
2019-04-05T07:35:52.555Z,8.21
2019-04-05T07:38:21.138Z,8.43
2019-04-05T07:40:49.745Z,8.50
2019-04-05T07:43:18.363Z,8.55
2019-04-05T07:45:46.956Z,8.56
2019-04-05T07:48:15.547Z,8.61
2019-04-05T07:50:44.659Z,8.66
2019-04-05T07:53:13.267Z,8.68
2019-04-05T07:55:41.946Z,8.65
2019-04-05T07:58:10.623Z,8.70
2019-04-05T08:00:55.902Z,8.67
2019-04-05T08:03:24.890Z,8.71
2019-04-05T08:05:53.683Z,8.78
2019-04-05T08:08:40.305Z,8.87
2019-04-05T08:11:09.276Z,8.97
2019-04-05T08:13:40.691Z,9.03
2019-04-05T08:16:09.294Z,9.09
2019-04-05T08:18:37.872Z,9.16
2019-04-05T08:21:06.575Z,9.32
2019-04-05T08:23:35.144Z,9.40
2019-04-05T08:26:03.719Z,9.54
2019-04-05T08:28:32.649Z,9.67
2019-04-05T08:31:01.242Z,9.71
2019-04-05T08:33:29.814Z,9.72
2019-04-05T08:35:58.441Z,9.80
2019-04-05T08:38:27.024Z,9.88
2019-04-05T08:40:55.934Z,9.92
2019-04-05T08:43:24.904Z,9.96
2019-04-05T08:45:53.930Z,9.93
2019-04-05T08:48:22.931Z,9.84
2019-04-05T08:50:51.623Z,9.73
2019-04-05T08:53:20.206Z,9.67
2019-04-05T08:55:48.789Z,9.61
2019-04-05T08:58:17.436Z,9.55
2019-04-05T09:00:46.011Z,9.44
2019-04-05T09:03:14.587Z,9.37
2019-04-05T09:05:43.242Z,9.37
2019-04-05T09:08:11.824Z,9.44
2019-04-05T09:10:41.191Z,9.44
2019-04-05T09:13:09.961Z,9.43
2019-04-05T09:15:38.539Z,9.35
2019-04-05T09:18:07.210Z,9.40
2019-04-05T09:20:36.261Z,9.49
2019-04-05T09:23:04.922Z,9.52
2019-04-05T09:25:33.767Z,9.56
2019-04-05T09:28:02.618Z,9.64
2019-04-05T09:30:31.278Z,9.72
2019-04-05T09:32:59.852Z,9.80
2019-04-05T09:35:28.915Z,9.87
2019-04-05T09:37:57.483Z,9.93
2019-04-05T09:40:26.156Z,9.99
2019-04-05T09:42:54.813Z,10.03
2019-04-05T09:45:23.458Z,9.96
2019-04-05T09:47:52.381Z,9.94
2019-04-05T09:50:21.075Z,9.83
2019-04-05T09:52:50.828Z,9.79
2019-04-05T09:55:20.104Z,9.78
2019-04-05T09:57:48.683Z,9.72
2019-04-05T10:00:28.237Z,9.72
2019-04-05T10:02:57.104Z,9.77
2019-04-05T10:05:25.703Z,9.84
2019-04-05T10:07:55.687Z,9.90
2019-04-05T10:10:24.717Z,9.92
2019-04-05T10:12:53.302Z,9.91
2019-04-05T10:15:22.230Z,9.90
2019-04-05T10:17:50.836Z,9.90
2019-04-05T10:20:19.635Z,9.96
2019-04-05T10:22:48.314Z,9.97
2019-04-05T10:25:17.941Z,9.98
2019-04-05T10:27:46.687Z,9.94
2019-04-05T10:30:15.649Z,9.96
2019-04-05T10:32:46.116Z,10.00
2019-04-05T10:35:15.052Z,10.00
2019-04-05T10:37:43.681Z,10.11
2019-04-05T10:40:12.800Z,10.26
2019-04-05T10:42:41.415Z,10.36
2019-04-05T10:45:11.748Z,10.41
2019-04-05T10:47:40.337Z,10.40
2019-04-05T10:50:11.525Z,10.34
2019-04-05T10:52:40.177Z,10.32
2019-04-05T10:55:09.187Z,10.28
2019-04-05T10:57:38.583Z,10.27
2019-04-05T11:00:10.294Z,10.22
2019-04-05T11:02:39.269Z,10.25
2019-04-05T11:05:07.951Z,10.30
2019-04-05T11:07:36.565Z,10.34
2019-04-05T11:10:07.326Z,10.43
2019-04-05T11:12:35.947Z,10.54
2019-04-05T11:15:07.453Z,10.58
2019-04-05T11:17:36.137Z,10.63
2019-04-05T11:20:20.736Z,10.62
2019-04-05T11:22:38.527Z,10.62
2019-04-05T11:25:12.954Z,10.62
2019-04-05T11:27:41.661Z,10.55
2019-04-05T11:30:10.996Z,10.49
2019-04-05T11:32:40.101Z,10.45
2019-04-05T11:35:09.484Z,10.39
2019-04-05T11:37:39.738Z,10.31
2019-04-05T11:40:10.737Z,10.32
2019-04-05T11:42:40.919Z,10.31
2019-04-05T11:45:10.283Z,10.31
2019-04-05T11:47:41.148Z,10.34
2019-04-05T11:50:11.679Z,10.37
2019-04-05T11:52:40.288Z,10.37
2019-04-05T11:55:09.060Z,10.37
2019-04-05T11:57:41.147Z,10.37
2019-04-05T12:00:15.622Z,10.33
2019-04-05T12:02:45.910Z,10.25
2019-04-05T12:05:16.078Z,10.16
2019-04-05T12:07:44.659Z,10.06
2019-04-05T12:10:13.637Z,9.98
2019-04-05T12:12:42.261Z,9.91
2019-04-05T12:15:12.285Z,9.84
2019-04-05T12:17:41.106Z,9.76
2019-04-05T12:20:10.178Z,9.69
2019-04-05T12:22:38.811Z,9.61
2019-04-05T12:25:08.332Z,9.57
2019-04-05T12:27:37.406Z,9.56
2019-04-05T12:30:09.602Z,9.59
2019-04-05T12:32:41.278Z,9.61
2019-04-05T12:35:08.716Z,9.68
2019-04-05T12:37:49.620Z,9.67
2019-04-05T12:40:10.253Z,9.64
2019-04-05T12:42:42.704Z,9.64
2019-04-05T12:45:14.722Z,9.64
2019-04-05T12:47:41.047Z,9.64
2019-04-05T12:50:14.096Z,9.64
2019-04-05T12:52:42.173Z,9.71
2019-04-05T12:55:10.985Z,9.84
2019-04-05T12:57:39.603Z,9.99
2019-04-05T13:00:13.296Z,10.18
2019-04-05T13:02:42.250Z,10.30
2019-04-05T13:05:11.518Z,10.40
2019-04-05T13:07:40.169Z,10.37
2019-04-05T13:10:09.208Z,10.35
2019-04-05T13:12:38.089Z,10.33
2019-04-05T13:15:12.848Z,10.29
2019-04-05T13:17:38.067Z,10.21
2019-04-05T13:20:08.394Z,10.12
2019-04-05T13:22:37.011Z,10.04
2019-04-05T13:25:10.790Z,9.96
2019-04-05T13:27:41.242Z,9.89
2019-04-05T13:30:09.299Z,9.82
2019-04-05T13:32:38.146Z,9.76
2019-04-05T13:35:07.288Z,9.75
2019-04-05T13:37:35.868Z,9.77
2019-04-05T13:40:06.792Z,9.78
2019-04-05T13:42:35.688Z,9.77
2019-04-05T13:45:06.481Z,9.71
2019-04-05T13:47:37.981Z,9.63
2019-04-05T13:50:10.855Z,9.52
2019-04-05T13:52:37.355Z,9.43
2019-04-05T13:55:10.346Z,9.36
2019-04-05T13:57:38.434Z,9.34
2019-04-05T14:00:10.592Z,9.34
2019-04-05T14:02:39.158Z,9.32
2019-04-05T14:05:08.256Z,9.32
2019-04-05T14:07:37.031Z,9.31
2019-04-05T14:10:10.744Z,9.31
2019-04-05T14:12:40.111Z,9.28
2019-04-05T14:15:10.704Z,9.26
2019-04-05T14:17:39.041Z,9.24
2019-04-05T14:20:09.365Z,9.21
2019-04-05T14:22:38.092Z,9.20
2019-04-05T14:25:08.207Z,9.16
2019-04-05T14:27:36.780Z,9.13
2019-04-05T14:30:07.118Z,9.12
2019-04-05T14:32:35.847Z,9.09
2019-04-05T14:35:07.985Z,9.06
2019-04-05T14:37:36.852Z,9.05
2019-04-05T14:40:08.747Z,9.03
2019-04-05T14:42:37.527Z,9.01
2019-04-05T14:45:07.607Z,8.99
2019-04-05T14:47:36.273Z,8.98
2019-04-05T14:50:09.277Z,8.96
2019-04-05T14:52:38.366Z,8.91
2019-04-05T14:55:07.252Z,8.86
2019-04-05T14:57:36.727Z,8.82
2019-04-05T15:00:10.225Z,8.79
2019-04-05T15:02:38.979Z,8.76
2019-04-05T15:05:08.425Z,8.70
2019-04-05T15:07:37.955Z,8.63
2019-04-05T15:10:07.167Z,8.63
2019-04-05T15:12:35.901Z,8.60
2019-04-05T15:15:06.739Z,8.59
2019-04-05T15:17:47.321Z,8.57
2019-04-05T15:20:10.187Z,8.57
2019-04-05T15:22:41.550Z,8.55
2019-04-05T15:25:09.735Z,8.51
2019-04-05T15:27:38.413Z,8.49
2019-04-05T15:30:08.384Z,8.44
2019-04-05T15:32:37.906Z,8.39
2019-04-05T15:35:08.491Z,8.35
2019-04-05T15:37:37.646Z,8.34
2019-04-05T15:40:07.965Z,8.30
2019-04-05T15:42:36.721Z,8.29
2019-04-05T15:45:10.960Z,8.29
2019-04-05T15:47:39.629Z,8.26
2019-04-05T15:50:08.888Z,8.24
2019-04-05T15:52:37.582Z,8.22
2019-04-05T15:55:06.922Z,8.20
2019-04-05T15:57:35.520Z,8.19
2019-04-05T16:00:08.815Z,8.17
2019-04-05T16:02:37.791Z,8.14
2019-04-05T16:05:08.802Z,8.13
2019-04-05T16:07:37.380Z,8.12
2019-04-05T16:10:10.372Z,8.09
2019-04-05T16:12:39.430Z,8.05
2019-04-05T16:15:09.818Z,7.99
2019-04-05T16:17:38.521Z,7.98
2019-04-05T16:20:11.569Z,7.94
2019-04-05T16:22:40.182Z,7.93
2019-04-05T16:25:09.358Z,7.88
2019-04-05T16:27:38.242Z,7.86
2019-04-05T16:30:07.571Z,7.86
2019-04-05T16:32:36.234Z,7.85
2019-04-05T16:35:06.716Z,7.83
2019-04-05T16:37:35.379Z,7.83
2019-04-05T16:40:08.697Z,7.83
2019-04-05T16:42:37.325Z,7.81
2019-04-05T16:45:07.807Z,7.81
2019-04-05T16:47:36.472Z,7.80
2019-04-05T16:50:09.555Z,7.78
2019-04-05T16:52:44.562Z,7.76
2019-04-05T16:55:09.600Z,7.73
2019-04-05T16:57:38.157Z,7.72
2019-04-05T17:00:11.176Z,7.69
2019-04-05T17:02:39.844Z,7.67
2019-04-05T17:05:09.226Z,7.65
2019-04-05T17:07:37.859Z,7.64
2019-04-05T17:10:06.563Z,7.61
2019-04-05T17:12:35.175Z,7.57
2019-04-05T17:15:05.164Z,7.58
2019-04-05T17:17:33.758Z,7.58
2019-04-05T17:20:02.438Z,7.56
2019-04-05T17:22:31.790Z,7.56
2019-04-05T17:25:00.931Z,7.60
2019-04-05T17:27:29.705Z,7.60
2019-04-05T17:29:58.357Z,7.60
2019-04-05T17:32:26.939Z,7.59
2019-04-05T17:34:55.534Z,7.57
2019-04-05T17:37:26.565Z,7.57
2019-04-05T17:39:54.850Z,7.57
2019-04-05T17:42:23.479Z,7.58
2019-04-05T17:44:51.983Z,7.55
2019-04-05T17:47:20.571Z,7.52
2019-04-05T17:49:49.179Z,7.53
2019-04-05T17:52:18.017Z,7.54
2019-04-05T17:54:46.604Z,7.55
2019-04-05T17:57:15.521Z,7.54
2019-04-05T17:59:44.673Z,7.53
2019-04-05T18:02:13.319Z,7.51
2019-04-05T18:04:42.027Z,7.51
2019-04-05T18:07:11.039Z,7.50
2019-04-05T18:09:40.895Z,7.49
2019-04-05T18:12:09.572Z,7.50
2019-04-05T18:14:38.230Z,7.52
2019-04-05T18:17:06.915Z,7.50
2019-04-05T18:19:35.486Z,7.49
2019-04-05T18:22:04.255Z,7.51
2019-04-05T18:24:32.835Z,7.53
2019-04-05T18:27:01.530Z,7.52
2019-04-05T18:29:30.109Z,7.52
2019-04-05T18:31:58.832Z,7.54
2019-04-05T18:34:27.473Z,7.54
2019-04-05T18:36:56.448Z,7.54
2019-04-05T18:39:25.031Z,7.52
2019-04-05T18:41:53.722Z,7.52
2019-04-05T18:44:22.554Z,7.52
2019-04-05T18:46:52.023Z,7.52
2019-04-05T18:49:20.784Z,7.52
2019-04-05T18:51:49.674Z,7.51
2019-04-05T18:54:19.254Z,7.52
2019-04-05T18:56:48.419Z,7.53
2019-04-05T18:59:18.229Z,7.51
2019-04-05T19:01:47.296Z,7.53
2019-04-05T19:04:16.653Z,7.50
2019-04-05T19:06:46.281Z,7.51
2019-04-05T19:09:16.409Z,7.49
2019-04-05T19:11:46.278Z,7.50
2019-04-05T19:14:16.310Z,7.51
2019-04-05T19:16:46.288Z,7.51
2019-04-05T19:19:17.937Z,7.49
2019-04-05T19:21:47.611Z,7.48
2019-04-05T19:24:18.472Z,7.47
2019-04-05T19:26:48.533Z,7.45
2019-04-05T19:29:18.824Z,7.44
2019-04-05T19:49:26.711Z,7.46
2019-04-05T19:51:56.152Z,7.46
2019-04-05T19:54:26.468Z,7.47
2019-04-05T19:56:56.739Z,7.49
2019-04-05T19:59:26.531Z,7.49
2019-04-05T20:01:56.040Z,7.50
2019-04-05T20:04:26.265Z,7.51
2019-04-05T20:06:58.770Z,7.50
2019-04-05T20:09:28.892Z,7.50
2019-04-05T20:11:59.063Z,7.51
2019-04-05T20:14:29.091Z,7.51
2019-04-05T20:16:58.223Z,7.50
2019-04-05T20:19:28.377Z,7.49
2019-04-05T20:21:58.142Z,7.48
2019-04-05T20:24:27.600Z,7.47
2019-04-05T20:26:57.108Z,7.46
2019-04-05T20:29:26.018Z,7.46
2019-04-05T20:31:54.877Z,7.46
2019-04-05T20:34:24.500Z,7.46
2019-04-05T20:36:53.476Z,7.46
2019-04-05T20:39:22.499Z,7.44
2019-04-05T20:41:51.244Z,7.46
2019-04-05T20:44:19.953Z,7.45
2019-04-05T20:46:48.589Z,7.46
2019-04-05T20:49:17.236Z,7.45
2019-04-05T20:51:45.976Z,7.45
2019-04-05T20:54:24.246Z,7.45
2019-04-05T20:56:45.284Z,7.44
2019-04-05T20:59:14.132Z,7.43
2019-04-05T21:01:42.778Z,7.44
2019-04-05T21:04:11.562Z,7.45
2019-04-05T21:06:40.454Z,7.44
2019-04-05T21:09:09.635Z,7.44
2019-04-05T21:11:38.374Z,7.43
2019-04-05T21:14:07.297Z,7.42
2019-04-05T21:16:36.476Z,7.40
2019-04-05T21:19:05.217Z,7.41
2019-04-05T21:21:33.781Z,7.39
2019-04-05T21:24:02.347Z,7.41
2019-04-05T21:26:30.966Z,7.40
2019-04-05T21:28:59.566Z,7.39
2019-04-05T21:31:28.132Z,7.39
2019-04-05T21:33:57.065Z,7.38
2019-04-05T21:36:25.595Z,7.37
2019-04-05T21:38:54.320Z,7.38
2019-04-05T21:41:23.004Z,7.39
2019-04-05T21:43:51.600Z,7.41
2019-04-05T21:46:20.303Z,7.42
2019-04-05T21:48:49.597Z,7.43
2019-04-05T21:51:18.221Z,7.44
2019-04-05T21:53:47.509Z,7.44
2019-04-05T21:56:16.154Z,7.44
2019-04-05T21:58:44.731Z,7.45
2019-04-05T22:01:13.627Z,7.47
2019-04-05T22:03:42.220Z,7.47
2019-04-05T22:06:10.800Z,7.47
2019-04-05T22:08:39.372Z,7.48
2019-04-05T22:11:08.323Z,7.48
2019-04-05T22:13:36.937Z,7.44
2019-04-05T22:16:05.679Z,7.49
2019-04-05T22:18:34.253Z,7.45
2019-04-05T22:21:02.984Z,7.45
2019-04-05T22:23:31.586Z,7.43
2019-04-05T22:26:00.338Z,7.43
2019-04-05T22:28:28.947Z,7.44
2019-04-05T22:30:57.632Z,7.43
2019-04-05T22:33:26.305Z,7.43
2019-04-05T22:35:55.075Z,7.42
2019-04-05T22:38:23.680Z,7.40
2019-04-05T22:40:52.251Z,7.40
2019-04-05T22:43:20.908Z,7.40
2019-04-05T22:45:50.003Z,7.41
2019-04-05T22:48:18.576Z,7.39
2019-04-05T22:50:47.187Z,7.41
2019-04-05T22:53:15.930Z,7.40
2019-04-05T22:55:44.532Z,7.42
2019-04-05T22:58:13.115Z,7.41
2019-04-05T23:00:41.728Z,7.41
2019-04-05T23:03:10.297Z,7.42
2019-04-05T23:05:38.895Z,7.42
2019-04-05T23:08:07.469Z,7.42
2019-04-05T23:10:36.379Z,7.41
2019-04-05T23:13:04.951Z,7.42
2019-04-05T23:15:33.514Z,7.42
2019-04-05T23:18:02.088Z,7.42
2019-04-05T23:20:30.706Z,7.43
2019-04-05T23:22:59.577Z,7.42
2019-04-05T23:25:28.844Z,7.41
2019-04-05T23:27:57.423Z,7.41
2019-04-05T23:30:27.596Z,7.42
2019-04-05T23:32:56.157Z,7.42
2019-04-05T23:35:24.762Z,7.41
2019-04-05T23:37:53.340Z,7.41
2019-04-05T23:40:21.938Z,7.41
2019-04-05T23:42:50.593Z,7.42
2019-04-05T23:45:19.469Z,7.41
2019-04-05T23:47:48.044Z,7.41
2019-04-05T23:50:16.640Z,7.42
2019-04-05T23:52:45.142Z,7.42
2019-04-05T23:55:13.736Z,7.41
2019-04-05T23:57:42.347Z,7.43
